Time;durP1;ratioP1;P1;durP2;ratioP2;P2;SDS_P1;SDS_P2;PMS_P1;PMS_P2;Temp;Humidity;BMP_temperature;BMP_pressure;BME280_temperature;BME280_humidity;BME280_pressure;Samples;Min_cycle;Max_cycle;Signal;HPM_P1;HPM_P2
2023/10/17 00:01:34;;;;;;;26.92;25.50;;;;;;;;;;4978756;28;19924;-62
2023/10/17 00:04:09;;;;;;;28.20;26.73;;;;;;;;;;4982213;28;20149;-62
2023/10/17 00:06:35;;;;;;;31.05;29.45;;;;;;;;;;4982099;28;20075;-62
2023/10/17 00:09:05;;;;;;;32.17;30.08;;;;;;;;;;4980847;28;20026;-62
2023/10/17 00:11:38;;;;;;;35.05;33.15;;;;;;;;;;4981161;28;20038;-62
2023/10/17 00:14:11;;;;;;;36.28;34.38;;;;;;;;;;4977946;28;20495;-62
2023/10/17 00:16:37;;;;;;;34.63;32.83;;;;;;;;;;4966947;28;20138;-63
2023/10/17 00:19:09;;;;;;;36.00;34.10;;;;;;;;;;4982814;28;20112;-62
2023/10/17 00:21:39;;;;;;;35.97;34.03;;;;;;;;;;4981469;28;20357;-62
2023/10/17 00:24:08;;;;;;;33.73;32.00;;;;;;;;;;4980087;28;20034;-62
2023/10/17 00:26:40;;;;;;;36.28;34.40;;;;;;;;;;4980780;28;20754;-62
2023/10/17 00:29:10;;;;;;;38.80;36.80;;;;;;;;;;4980417;28;20052;-62
2023/10/17 00:31:36;;;;;;;39.92;37.88;;;;;;;;;;4979914;28;20432;-63
2023/10/17 00:34:13;;;;;;;38.10;35.95;;;;;;;;;;4979807;28;20035;-62
2023/10/17 00:36:48;;;;;;;35.65;33.83;;;;;;;;;;4980736;28;20049;-62
2023/10/17 00:39:28;;;;;;;31.40;29.77;;;;;;;;;;4982411;28;20030;-63
2023/10/17 00:44:36;;;;;;;31.13;29.50;;;;;;;;;;4982063;28;20038;-62
2023/10/17 00:47:04;;;;;;;25.35;23.95;;;;;;;;;;4980339;28;20077;-62
2023/10/17 00:49:33;;;;;;;30.65;29.00;;;;;;;;;;4979889;28;20049;-62
2023/10/17 00:52:03;;;;;;;33.47;31.70;;;;;;;;;;4978647;28;20108;-62
2023/10/17 00:54:31;;;;;;;29.13;27.60;;;;;;;;;;4978624;28;20412;-62
2023/10/17 00:57:00;;;;;;;31.77;30.10;;;;;;;;;;4979995;28;20045;-62
2023/10/17 00:59:29;;;;;;;32.83;31.13;;;;;;;;;;4978403;28;20134;-61
2023/10/17 01:01:56;;;;;;;31.23;29.50;;;;;;;;;;4979751;28;20048;-61
2023/10/17 01:04:24;;;;;;;28.08;26.55;;;;;;;;;;4980490;28;20413;-61
2023/10/17 01:06:54;;;;;;;30.90;29.25;;;;;;;;;;4980357;28;20300;-61
2023/10/17 01:09:25;;;;;;;31.77;30.13;;;;;;;;;;4979264;28;20069;-61
2023/10/17 01:11:54;;;;;;;32.47;30.77;;;;;;;;;;4977362;28;20034;-61
2023/10/17 01:14:20;;;;;;;30.70;29.10;;;;;;;;;;4979336;28;20043;-61
2023/10/17 01:16:46;;;;;;;29.67;28.13;;;;;;;;;;4979706;28;20034;-61
2023/10/17 01:19:14;;;;;;;28.88;27.33;;;;;;;;;;4980995;28;20437;-60
2023/10/17 01:21:41;;;;;;;29.42;27.88;;;;;;;;;;4980069;28;20034;-60
2023/10/17 01:24:07;;;;;;;27.88;26.38;;;;;;;;;;4978804;28;20038;-60
2023/10/17 01:26:37;;;;;;;28.80;27.27;;;;;;;;;;4980453;28;20034;-61
2023/10/17 01:29:04;;;;;;;25.85;24.48;;;;;;;;;;4975607;28;20057;-60
2023/10/17 01:31:31;;;;;;;29.95;28.33;;;;;;;;;;4980868;28;20448;-60
2023/10/17 01:33:59;;;;;;;36.50;34.60;;;;;;;;;;4978807;28;20041;-60
2023/10/17 01:36:25;;;;;;;32.92;31.20;;;;;;;;;;4983435;28;20062;-60
2023/10/17 01:38:52;;;;;;;31.52;29.88;;;;;;;;;;4977437;28;20038;-60
2023/10/17 01:41:18;;;;;;;33.75;32.00;;;;;;;;;;4978788;28;20247;-60
2023/10/17 01:43:45;;;;;;;35.78;33.85;;;;;;;;;;4980970;28;20054;-60
2023/10/17 01:46:28;;;;;;;39.08;37.08;;;;;;;;;;4981073;28;20464;-60
2023/10/17 01:48:55;;;;;;;37.55;35.60;;;;;;;;;;4978088;28;20037;-60
2023/10/17 01:51:22;;;;;;;37.58;35.63;;;;;;;;;;4980389;28;20069;-60
2023/10/17 01:53:51;;;;;;;37.53;35.47;;;;;;;;;;4980537;28;20041;-60
2023/10/17 01:56:18;;;;;;;39.70;37.65;;;;;;;;;;4977678;28;20034;-60
2023/10/17 01:58:49;;;;;;;36.67;34.72;;;;;;;;;;4979352;28;20101;-61
2023/10/17 02:01:17;;;;;;;33.28;31.52;;;;;;;;;;4980675;28;20030;-60
2023/10/17 02:03:43;;;;;;;34.92;33.03;;;;;;;;;;4978025;28;20491;-60
2023/10/17 02:06:14;;;;;;;31.40;29.77;;;;;;;;;;4980121;28;20042;-60
2023/10/17 02:08:44;;;;;;;;;;;;;;;;;;4979633;28;20038;-60
2023/10/17 02:11:33;;;;;;;23.45;22.20;;;;;;;;;;4981157;28;19926;-60
2023/10/17 02:13:59;;;;;;;24.70;23.35;;;;;;;;;;4979172;28;20377;-60
2023/10/17 02:16:29;;;;;;;27.52;26.08;;;;;;;;;;4978906;28;20057;-60
2023/10/17 02:18:58;;;;;;;24.58;23.27;;;;;;;;;;4979373;28;20587;-61
2023/10/17 02:21:26;;;;;;;25.58;24.17;;;;;;;;;;4980685;28;20049;-61
2023/10/17 02:23:52;;;;;;;24.48;23.17;;;;;;;;;;4980897;28;20070;-60
2023/10/17 02:26:22;;;;;;;26.48;25.02;;;;;;;;;;4982981;28;20467;-60
2023/10/17 02:28:53;;;;;;;28.67;27.15;;;;;;;;;;4984950;28;20030;-60
2023/10/17 02:31:32;;;;;;;29.75;28.15;;;;;;;;;;4982939;28;20218;-62
2023/10/17 02:33:58;;;;;;;27.02;25.60;;;;;;;;;;4984008;28;20376;-62
2023/10/17 02:36:24;;;;;;;27.10;25.70;;;;;;;;;;4982163;28;20041;-62
2023/10/17 02:38:50;;;;;;;30.17;28.27;;;;;;;;;;4984394;28;20092;-62
2023/10/17 02:41:19;;;;;;;29.17;27.60;;;;;;;;;;4980664;28;20043;-63
2023/10/17 02:43:45;;;;;;;29.50;27.83;;;;;;;;;;4982696;28;20038;-62
2023/10/17 02:46:13;;;;;;;25.27;23.95;;;;;;;;;;4981601;28;20034;-62
2023/10/17 02:48:38;;;;;;;27.50;25.00;;;;;;;;;;4984157;28;20042;-63
2023/10/17 02:53:56;;;;;;;24.98;23.58;;;;;;;;;;4981844;28;20081;-62
2023/10/17 02:56:25;;;;;;;24.33;22.98;;;;;;;;;;4982734;28;20031;-62
2023/10/17 02:58:59;;;;;;;25.52;24.17;;;;;;;;;;4983767;28;20105;-62
2023/10/17 03:01:26;;;;;;;25.73;24.35;;;;;;;;;;4982306;28;20145;-62
2023/10/17 03:03:52;;;;;;;29.13;27.58;;;;;;;;;;4982360;28;20096;-62
2023/10/17 03:06:18;;;;;;;30.92;28.55;;;;;;;;;;4985002;28;20050;-62
2023/10/17 03:08:51;;;;;;;27.23;25.67;;;;;;;;;;4980436;28;20141;-62
2023/10/17 03:11:26;;;;;;;28.10;26.58;;;;;;;;;;4982046;28;20042;-62
2023/10/17 03:13:52;;;;;;;31.52;29.88;;;;;;;;;;4983947;28;20060;-62
2023/10/17 03:16:25;;;;;;;38.72;36.70;;;;;;;;;;4981415;28;20070;-62
2023/10/17 03:18:50;;;;;;;35.22;33.40;;;;;;;;;;4980827;28;20231;-62
2023/10/17 03:21:18;;;;;;;34.75;32.95;;;;;;;;;;4980939;28;20026;-62
2023/10/17 03:23:49;;;;;;;27.08;25.65;;;;;;;;;;4981160;28;20040;-62
2023/10/17 03:26:17;;;;;;;23.63;22.33;;;;;;;;;;4979916;28;20427;-62
2023/10/17 03:28:43;;;;;;;22.60;21.25;;;;;;;;;;4997498;28;20479;-62
2023/10/17 03:31:10;;;;;;;23.50;22.25;;;;;;;;;;4982044;28;20030;-60
2023/10/17 03:33:40;;;;;;;24.98;22.98;;;;;;;;;;4982224;28;20111;-61
2023/10/17 03:36:05;;;;;;;25.98;24.52;;;;;;;;;;4979162;28;20124;-61
2023/10/17 03:38:36;;;;;;;24.15;22.85;;;;;;;;;;4982260;28;20110;-60
2023/10/17 03:41:02;;;;;;;22.83;21.60;;;;;;;;;;4980587;28;20101;-61
2023/10/17 03:43:45;;;;;;;24.30;23.02;;;;;;;;;;4980057;28;20042;-60
2023/10/17 03:46:15;;;;;;;21.48;20.33;;;;;;;;;;4979958;28;20035;-60
2023/10/17 03:48:49;;;;;;;22.05;20.85;;;;;;;;;;4981424;28;20467;-60
2023/10/17 03:51:21;;;;;;;21.98;20.77;;;;;;;;;;4980749;28;20066;-60
2023/10/17 03:53:48;;;;;;;24.20;22.85;;;;;;;;;;4980099;28;20109;-60
2023/10/17 03:56:26;;;;;;;22.48;21.25;;;;;;;;;;4980437;28;20118;-60
2023/10/17 04:01:36;;;;;;;23.00;21.73;;;;;;;;;;4981579;28;20042;-60
2023/10/17 04:04:02;;;;;;;21.95;20.73;;;;;;;;;;4980378;28;20026;-60
2023/10/17 04:06:34;;;;;;;25.38;24.02;;;;;;;;;;4981592;28;20030;-60
2023/10/17 04:09:20;;;;;;;27.38;25.90;;;;;;;;;;4980431;28;20066;-60
2023/10/17 04:11:49;;;;;;;23.92;22.65;;;;;;;;;;4983648;28;20038;-60
2023/10/17 04:14:17;;;;;;;25.02;23.65;;;;;;;;;;4982458;28;20022;-60
2023/10/17 04:16:44;;;;;;;24.63;23.27;;;;;;;;;;4982898;28;20042;-60
2023/10/17 04:19:17;;;;;;;26.20;24.77;;;;;;;;;;4981129;28;20089;-60
2023/10/17 04:21:58;;;;;;;27.00;25.48;;;;;;;;;;4981138;28;20850;-61
2023/10/17 04:24:35;;;;;;;29.02;27.45;;;;;;;;;;4979655;28;20034;-60
2023/10/17 04:27:18;;;;;;;27.40;25.98;;;;;;;;;;4982026;28;20049;-60
2023/10/17 04:29:49;;;;;;;25.60;24.23;;;;;;;;;;4981543;28;20518;-61
2023/10/17 04:32:15;;;;;;;24.48;23.08;;;;;;;;;;4981173;28;20192;-60
2023/10/17 04:34:48;;;;;;;24.50;23.20;;;;;;;;;;4980573;28;20182;-61
2023/10/17 04:37:31;;;;;;;26.70;25.27;;;;;;;;;;4980238;28;20172;-62
2023/10/17 04:39:58;;;;;;;24.50;23.20;;;;;;;;;;4977317;28;20468;-61
2023/10/17 04:45:13;;;;;;;22.63;21.38;;;;;;;;;;4981675;28;20327;-63
2023/10/17 04:48:08;;;;;;;21.48;20.20;;;;;;;;;;4979815;28;20304;-61
2023/10/17 04:50:44;;;;;;;19.13;18.08;;;;;;;;;;4982578;28;20039;-61
2023/10/17 04:53:16;;;;;;;22.45;21.20;;;;;;;;;;4979698;28;20637;-61
2023/10/17 04:56:00;;;;;;;25.95;24.55;;;;;;;;;;4980511;28;20142;-61
2023/10/17 04:58:40;;;;;;;23.00;21.77;;;;;;;;;;4980867;28;20038;-61
2023/10/17 05:03:46;;;;;;;22.63;21.40;;;;;;;;;;4979196;28;20044;-66
2023/10/17 06:17:29;;;;;;;19.25;18.20;;;;;;;;;;4980476;28;20038;-67
2023/10/17 06:19:58;;;;;;;21.15;19.95;;;;;;;;;;4979945;28;20038;-67
2023/10/17 06:30:29;;;;;;;20.65;19.52;;;;;;;;;;4980991;28;20097;-66
2023/10/17 06:33:42;;;;;;;20.88;19.67;;;;;;;;;;4978190;28;20582;-66
2023/10/17 06:35:45;;;;;;;21.20;19.95;;;;;;;;;;4976062;28;20042;-66
2023/10/17 06:38:10;;;;;;;22.60;21.35;;;;;;;;;;4977748;28;20046;-65
2023/10/17 06:40:45;;;;;;;24.00;22.65;;;;;;;;;;4977991;28;20031;-66
2023/10/17 06:43:14;;;;;;;21.60;20.45;;;;;;;;;;4979753;28;20034;-66
2023/10/17 06:45:54;;;;;;;23.13;21.73;;;;;;;;;;4979795;28;20091;-66
2023/10/17 06:48:32;;;;;;;19.67;18.58;;;;;;;;;;4980050;28;20165;-65
2023/10/17 06:53:48;;;;;;;20.17;19.08;;;;;;;;;;4974925;28;20686;-65
2023/10/17 06:56:17;;;;;;;21.85;20.58;;;;;;;;;;4980270;28;20046;-61
2023/10/17 06:58:44;;;;;;;21.20;19.98;;;;;;;;;;4979607;28;20144;-59
2023/10/17 07:01:25;;;;;;;22.45;21.20;;;;;;;;;;4978268;28;20643;-60
2023/10/17 07:03:54;;;;;;;22.45;21.25;;;;;;;;;;4978565;28;20101;-61
2023/10/17 07:06:24;;;;;;;23.83;22.52;;;;;;;;;;4980269;28;20652;-61
2023/10/17 07:08:50;;;;;;;20.33;19.20;;;;;;;;;;4978232;28;20058;-61
2023/10/17 07:16:34;;;;;;;21.70;20.50;;;;;;;;;;4982701;28;20464;-60
2023/10/17 07:21:56;;;;;;;19.13;18.08;;;;;;;;;;4983987;28;20018;-61
2023/10/17 07:24:25;;;;;;;21.48;20.27;;;;;;;;;;4977726;28;20053;-61
2023/10/17 07:26:52;;;;;;;22.92;21.05;;;;;;;;;;4980140;28;20060;-61
2023/10/17 07:29:22;;;;;;;21.05;19.75;;;;;;;;;;4983253;28;20049;-63
2023/10/17 07:31:52;;;;;;;20.58;19.10;;;;;;;;;;4983600;28;20042;-60
2023/10/17 07:34:19;;;;;;;19.52;18.42;;;;;;;;;;4982187;28;20034;-61
2023/10/17 07:36:47;;;;;;;21.30;20.10;;;;;;;;;;4982246;28;20026;-61
2023/10/17 07:39:22;;;;;;;19.67;18.58;;;;;;;;;;4980302;28;20038;-61
2023/10/17 07:41:53;;;;;;;20.10;19.00;;;;;;;;;;4984373;28;20040;-59
2023/10/17 07:44:27;;;;;;;20.73;19.58;;;;;;;;;;4981248;28;20105;-59
2023/10/17 07:49:37;;;;;;;19.17;18.08;;;;;;;;;;4980519;28;20034;-60
2023/10/17 07:52:12;;;;;;;19.30;18.15;;;;;;;;;;4966943;28;20037;-60
2023/10/17 07:54:45;;;;;;;21.38;20.08;;;;;;;;;;4981443;28;20049;-63
2023/10/17 07:57:23;;;;;;;21.90;20.60;;;;;;;;;;4981869;28;20046;-66
2023/10/17 07:59:51;;;;;;;20.02;18.92;;;;;;;;;;4981574;28;20034;-68
2023/10/17 08:02:22;;;;;;;16.50;15.50;;;;;;;;;;4982288;28;20045;-66
2023/10/17 08:04:53;;;;;;;18.30;16.77;;;;;;;;;;4983193;28;20050;-66
2023/10/17 08:07:20;;;;;;;16.85;15.85;;;;;;;;;;4980627;28;20136;-66
2023/10/17 08:09:58;;;;;;;14.77;13.95;;;;;;;;;;4981486;28;20046;-65
2023/10/17 08:12:24;;;;;;;16.27;15.38;;;;;;;;;;4978918;28;20056;-68
2023/10/17 08:15:05;;;;;;;16.45;15.55;;;;;;;;;;4979542;28;20129;-66
2023/10/17 08:17:34;;;;;;;18.23;17.23;;;;;;;;;;4980025;28;20042;-68
2023/10/17 08:20:00;;;;;;;16.13;15.02;;;;;;;;;;4980693;28;20031;-68
2023/10/17 08:22:26;;;;;;;14.85;13.95;;;;;;;;;;4978525;28;20671;-68
2023/10/17 08:24:53;;;;;;;14.75;13.95;;;;;;;;;;4980497;28;20423;-69
2023/10/17 08:29:49;;;;;;;28.08;14.52;;;;;;;;;;4981313;28;20105;-68
2023/10/17 08:34:59;;;;;;;15.00;14.10;;;;;;;;;;4981289;28;20053;-68
2023/10/17 08:37:39;;;;;;;14.98;14.18;;;;;;;;;;4980258;28;20069;-68
2023/10/17 08:40:29;;;;;;;14.00;13.20;;;;;;;;;;4980957;28;20037;-67
2023/10/17 08:42:51;;;;;;;13.93;13.13;;;;;;;;;;4983171;28;20062;-67
2023/10/17 08:45:18;;;;;;;14.35;13.55;;;;;;;;;;4982615;28;20136;-67
2023/10/17 08:47:44;;;;;;;13.68;12.88;;;;;;;;;;4980984;28;20088;-68
2023/10/17 08:50:09;;;;;;;14.63;13.57;;;;;;;;;;4979960;28;20420;-68
2023/10/17 08:52:37;;;;;;;17.13;16.05;;;;;;;;;;4980066;28;20460;-68
2023/10/17 08:55:03;;;;;;;15.82;14.93;;;;;;;;;;4977913;28;20030;-68
2023/10/17 08:57:30;;;;;;;16.00;15.00;;;;;;;;;;4981925;28;20121;-68
2023/10/17 09:02:32;;;;;;;15.45;14.55;;;;;;;;;;4977927;28;20173;-68
2023/10/17 09:05:17;;;;;;;15.00;13.90;;;;;;;;;;4977775;28;20367;-67
2023/10/17 09:07:47;;;;;;;15.75;14.85;;;;;;;;;;4978492;28;20439;-68
2023/10/17 09:10:36;;;;;;;15.32;14.35;;;;;;;;;;4975932;28;20484;-68
2023/10/17 09:13:14;;;;;;;14.50;13.70;;;;;;;;;;4978942;28;20538;-67
2023/10/17 09:15:48;;;;;;;16.35;15.45;;;;;;;;;;4980718;28;20038;-66
2023/10/17 09:18:14;;;;;;;16.23;15.32;;;;;;;;;;4980297;28;20038;-66
2023/10/17 09:20:40;;;;;;;15.90;14.95;;;;;;;;;;4979743;28;20241;-67
2023/10/17 09:23:21;;;;;;;14.88;13.98;;;;;;;;;;4976418;28;20648;-67
2023/10/17 09:26:07;;;;;;;15.13;14.25;;;;;;;;;;4976403;28;20034;-67
2023/10/17 09:28:36;;;;;;;15.95;15.05;;;;;;;;;;4976641;28;20113;-66
2023/10/17 09:31:09;;;;;;;16.45;15.55;;;;;;;;;;4977651;28;20108;-67
2023/10/17 09:33:36;;;;;;;15.55;14.65;;;;;;;;;;4976883;28;20030;-67
2023/10/17 09:36:04;;;;;;;14.15;13.35;;;;;;;;;;4977431;28;20110;-66
2023/10/17 09:38:43;;;;;;;16.45;15.45;;;;;;;;;;4980042;28;20045;-67
2023/10/17 09:41:11;;;;;;;16.52;15.52;;;;;;;;;;4978243;28;20138;-66
2023/10/17 09:43:38;;;;;;;14.82;13.88;;;;;;;;;;4978146;28;20039;-67
2023/10/17 09:46:09;;;;;;;14.73;13.82;;;;;;;;;;4977551;28;20105;-67
2023/10/17 09:48:43;;;;;;;14.35;13.55;;;;;;;;;;4977007;28;20870;-66
2023/10/17 09:51:25;;;;;;;15.93;14.65;;;;;;;;;;4978567;28;20133;-66
2023/10/17 09:53:58;;;;;;;15.50;14.48;;;;;;;;;;4977587;28;20054;-65
2023/10/17 09:56:34;;;;;;;16.25;15.35;;;;;;;;;;4980409;28;20042;-67
2023/10/17 09:59:11;;;;;;;21.25;14.50;;;;;;;;;;4977371;28;20049;-67
2023/10/17 10:01:39;;;;;;;14.77;13.95;;;;;;;;;;4977157;28;20208;-67
2023/10/17 10:04:07;;;;;;;15.00;14.10;;;;;;;;;;4975568;28;20038;-61
2023/10/17 10:06:34;;;;;;;15.20;14.30;;;;;;;;;;4978652;28;20540;-62
2023/10/17 10:09:14;;;;;;;15.35;14.45;;;;;;;;;;4977639;28;20088;-63
2023/10/17 10:11:49;;;;;;;16.17;15.18;;;;;;;;;;4979869;28;20049;-61
2023/10/17 10:14:15;;;;;;;15.18;14.27;;;;;;;;;;4981583;28;20316;-61
2023/10/17 10:17:03;;;;;;;14.55;13.70;;;;;;;;;;4978558;28;20137;-61
2023/10/17 10:19:40;;;;;;;14.93;13.90;;;;;;;;;;4978005;28;20559;-61
2023/10/17 10:22:07;;;;;;;15.30;14.40;;;;;;;;;;4978532;28;20049;-66
2023/10/17 10:24:34;;;;;;;13.98;13.18;;;;;;;;;;4980116;28;20061;-67
2023/10/17 10:27:24;;;;;;;14.38;13.57;;;;;;;;;;4978317;28;20034;-67
2023/10/17 10:29:54;;;;;;;14.93;14.02;;;;;;;;;;4976539;28;20042;-66
2023/10/17 10:32:35;;;;;;;16.27;15.27;;;;;;;;;;4976766;28;20030;-66
2023/10/17 10:35:08;;;;;;;15.18;14.27;;;;;;;;;;4976597;28;20285;-67
2023/10/17 10:37:54;;;;;;;16.60;15.63;;;;;;;;;;4978278;28;20082;-66
2023/10/17 10:40:30;;;;;;;14.50;13.60;;;;;;;;;;4978174;28;20026;-67
2023/10/17 10:42:59;;;;;;;16.13;15.23;;;;;;;;;;4976697;28;20046;-66
2023/10/17 10:45:25;;;;;;;16.75;15.65;;;;;;;;;;4980675;28;20035;-66
2023/10/17 10:47:57;;;;;;;15.48;14.57;;;;;;;;;;4980325;28;20035;-66
2023/10/17 10:50:31;;;;;;;16.00;15.00;;;;;;;;;;4980041;28;20338;-67
2023/10/17 10:53:00;;;;;;;15.75;14.85;;;;;;;;;;4981281;28;20022;-65
2023/10/17 10:55:26;;;;;;;15.82;14.88;;;;;;;;;;4984248;28;20041;-66
2023/10/17 10:57:53;;;;;;;16.02;15.13;;;;;;;;;;4983356;28;20121;-66
2023/10/17 11:00:18;;;;;;;15.20;14.27;;;;;;;;;;4982094;28;20041;-66
2023/10/17 11:02:44;;;;;;;15.90;15.00;;;;;;;;;;4979371;28;20382;-66
2023/10/17 11:05:10;;;;;;;17.77;16.77;;;;;;;;;;4980923;28;20116;-67
2023/10/17 11:07:36;;;;;;;16.45;15.50;;;;;;;;;;4963792;28;20042;-67
2023/10/17 11:10:04;;;;;;;18.38;17.27;;;;;;;;;;4985464;28;20050;-64
2023/10/17 11:12:29;;;;;;;19.17;18.05;;;;;;;;;;4984862;28;20031;-66
2023/10/17 11:15:19;;;;;;;20.40;19.30;;;;;;;;;;4980043;28;20030;-66
2023/10/17 11:17:45;;;;;;;18.55;17.35;;;;;;;;;;4981500;28;20099;-61
2023/10/17 11:20:18;;;;;;;18.48;17.45;;;;;;;;;;4982092;28;20034;-60
2023/10/17 11:22:46;;;;;;;19.40;18.30;;;;;;;;;;4980697;28;20039;-61
2023/10/17 11:25:14;;;;;;;17.52;16.52;;;;;;;;;;4982380;28;20030;-61
2023/10/17 11:27:53;;;;;;;18.08;16.98;;;;;;;;;;4982365;28;20778;-61
2023/10/17 11:30:20;;;;;;;18.92;17.83;;;;;;;;;;4978286;28;20342;-61
2023/10/17 11:32:47;;;;;;;19.45;18.38;;;;;;;;;;4982271;28;20437;-61
2023/10/17 11:35:29;;;;;;;19.35;18.13;;;;;;;;;;4982259;28;20030;-61
2023/10/17 11:37:56;;;;;;;18.67;17.65;;;;;;;;;;4982472;28;20432;-60
2023/10/17 11:40:38;;;;;;;18.58;17.58;;;;;;;;;;4981259;28;20053;-61
2023/10/17 11:43:18;;;;;;;19.08;18.05;;;;;;;;;;4981450;28;20030;-66
2023/10/17 11:45:44;;;;;;;18.52;17.42;;;;;;;;;;4981489;28;20034;-66
2023/10/17 11:48:28;;;;;;;20.27;19.08;;;;;;;;;;4978073;28;20085;-66
2023/10/17 11:51:05;;;;;;;18.67;17.67;;;;;;;;;;4980971;28;20472;-66
2023/10/17 11:53:31;;;;;;;19.67;18.58;;;;;;;;;;4982209;28;20034;-61
2023/10/17 11:55:58;;;;;;;19.10;18.05;;;;;;;;;;4982495;28;20046;-61
2023/10/17 11:58:29;;;;;;;19.48;18.38;;;;;;;;;;4983263;28;20593;-62
2023/10/17 12:00:55;;;;;;;19.10;18.00;;;;;;;;;;4982130;28;20114;-62
2023/10/17 12:03:20;;;;;;;18.58;17.58;;;;;;;;;;4982806;28;20038;-65
2023/10/17 12:05:47;;;;;;;17.33;16.33;;;;;;;;;;4981124;28;20105;-66
2023/10/17 12:08:21;;;;;;;17.75;16.67;;;;;;;;;;4981359;28;20043;-66
2023/10/17 12:10:51;;;;;;;18.52;17.52;;;;;;;;;;4982442;28;20030;-66
2023/10/17 12:13:20;;;;;;;17.45;16.45;;;;;;;;;;4982597;28;20476;-64
2023/10/17 12:15:46;;;;;;;18.90;17.90;;;;;;;;;;4979438;28;20043;-65
2023/10/17 12:18:14;;;;;;;17.77;16.67;;;;;;;;;;4980356;28;20042;-65
2023/10/17 12:20:42;;;;;;;18.30;17.30;;;;;;;;;;4981248;28;20033;-65
2023/10/17 12:23:10;;;;;;;20.02;18.92;;;;;;;;;;4979918;28;20093;-65
2023/10/17 12:25:36;;;;;;;17.20;16.00;;;;;;;;;;4982069;28;20039;-66
2023/10/17 12:28:03;;;;;;;16.35;15.43;;;;;;;;;;4981352;28;20117;-65
2023/10/17 12:30:35;;;;;;;15.30;14.40;;;;;;;;;;4979187;28;20514;-65
2023/10/17 12:33:01;;;;;;;17.63;16.63;;;;;;;;;;4979575;28;20045;-66
2023/10/17 12:35:27;;;;;;;17.98;16.95;;;;;;;;;;4982051;28;20400;-63
2023/10/17 12:37:57;;;;;;;17.38;16.30;;;;;;;;;;4979684;28;20042;-66
2023/10/17 12:40:23;;;;;;;18.27;17.27;;;;;;;;;;4980177;28;20034;-65
2023/10/17 12:42:49;;;;;;;14.88;14.07;;;;;;;;;;4979790;28;20038;-66
2023/10/17 12:45:15;;;;;;;17.55;16.55;;;;;;;;;;4980930;28;20518;-66
2023/10/17 12:47:43;;;;;;;19.33;18.02;;;;;;;;;;4980799;28;20043;-66
2023/10/17 12:50:11;;;;;;;14.55;13.75;;;;;;;;;;4981329;28;20827;-66
2023/10/17 12:52:37;;;;;;;21.27;20.13;;;;;;;;;;4979922;28;20251;-61
2023/10/17 12:55:04;;;;;;;21.77;20.58;;;;;;;;;;4977004;28;20048;-61
2023/10/17 12:57:29;;;;;;;19.23;18.08;;;;;;;;;;4979484;28;20468;-61
2023/10/17 12:59:57;;;;;;;20.85;19.73;;;;;;;;;;4979931;28;20038;-61
2023/10/17 13:02:24;;;;;;;21.23;20.08;;;;;;;;;;4979246;28;20152;-61
2023/10/17 13:04:49;;;;;;;22.27;21.08;;;;;;;;;;4979866;28;20391;-60
2023/10/17 13:07:15;;;;;;;21.70;20.50;;;;;;;;;;4981998;28;20034;-61
2023/10/17 13:09:41;;;;;;;23.33;22.02;;;;;;;;;;4978846;28;20051;-61
2023/10/17 13:12:06;;;;;;;20.45;19.35;;;;;;;;;;4978767;28;20478;-60
2023/10/17 13:14:32;;;;;;;22.52;21.33;;;;;;;;;;4982304;28;20042;-60
2023/10/17 13:16:58;;;;;;;22.23;21.02;;;;;;;;;;4980593;28;20109;-61
2023/10/17 13:19:23;;;;;;;23.42;22.15;;;;;;;;;;4981795;28;20462;-60
2023/10/17 13:21:49;;;;;;;21.35;20.17;;;;;;;;;;4976429;28;20030;-61
2023/10/17 13:24:15;;;;;;;22.98;21.75;;;;;;;;;;4977258;28;20030;-60
2023/10/17 13:26:41;;;;;;;21.58;20.38;;;;;;;;;;4979388;28;20039;-60
2023/10/17 13:29:06;;;;;;;22.55;21.35;;;;;;;;;;4978723;28;20044;-60
2023/10/17 13:31:33;;;;;;;24.67;23.38;;;;;;;;;;4982910;28;20487;-61
2023/10/17 13:33:58;;;;;;;23.30;22.00;;;;;;;;;;4979943;28;20038;-61
2023/10/17 13:36:24;;;;;;;21.55;20.33;;;;;;;;;;4978445;28;20469;-60
2023/10/17 13:38:50;;;;;;;24.30;23.00;;;;;;;;;;4979323;28;20038;-61
2023/10/17 13:41:16;;;;;;;22.88;21.67;;;;;;;;;;4979202;28;20360;-61
2023/10/17 13:43:42;;;;;;;22.90;21.70;;;;;;;;;;4982211;28;20562;-61
2023/10/17 13:46:13;;;;;;;22.25;21.05;;;;;;;;;;4979502;28;20052;-61
2023/10/17 13:48:39;;;;;;;22.93;21.73;;;;;;;;;;4983429;28;20050;-61
2023/10/17 13:51:08;;;;;;;20.42;19.33;;;;;;;;;;4979439;28;20049;-62
2023/10/17 13:53:36;;;;;;;22.20;21.00;;;;;;;;;;4981322;28;20034;-62
2023/10/17 13:56:11;;;;;;;20.95;19.85;;;;;;;;;;4976996;28;20049;-62
2023/10/17 13:58:38;;;;;;;21.88;20.67;;;;;;;;;;4979489;28;20030;-62
2023/10/17 14:01:27;;;;;;;20.95;19.85;;;;;;;;;;4980010;28;20106;-62
2023/10/17 14:03:49;;;;;;;21.05;19.95;;;;;;;;;;4981050;28;20038;-62
2023/10/17 14:06:14;;;;;;;19.92;18.83;;;;;;;;;;4979274;28;20034;-61
2023/10/17 14:08:41;;;;;;;18.98;17.98;;;;;;;;;;4978610;28;20042;-62
2023/10/17 14:11:08;;;;;;;19.73;18.63;;;;;;;;;;4979164;28;20046;-62
2023/10/17 14:13:33;;;;;;;22.13;20.73;;;;;;;;;;4980091;28;20034;-65
2023/10/17 14:16:00;;;;;;;22.75;21.30;;;;;;;;;;4978979;28;20038;-66
2023/10/17 14:18:40;;;;;;;19.08;17.98;;;;;;;;;;4980510;28;20041;-63
2023/10/17 14:21:16;;;;;;;21.83;20.52;;;;;;;;;;4977787;28;20054;-64
2023/10/17 14:23:57;;;;;;;20.27;19.17;;;;;;;;;;4979687;28;20073;-65
2023/10/17 14:26:22;;;;;;;21.80;20.60;;;;;;;;;;4981927;28;20440;-64
2023/10/17 14:28:50;;;;;;;20.00;18.90;;;;;;;;;;4975660;28;20034;-63
2023/10/17 14:31:15;;;;;;;19.83;18.65;;;;;;;;;;4978507;28;20104;-64
2023/10/17 14:33:40;;;;;;;21.20;20.02;;;;;;;;;;4976508;28;20042;-64
2023/10/17 14:36:09;;;;;;;22.33;20.90;;;;;;;;;;4978006;28;20050;-60
2023/10/17 14:38:34;;;;;;;20.25;19.15;;;;;;;;;;4979002;28;20039;-61
2023/10/17 14:41:08;;;;;;;20.23;19.13;;;;;;;;;;4979428;28;20073;-61
2023/10/17 14:43:35;;;;;;;23.67;22.38;;;;;;;;;;4994383;28;20065;-61
2023/10/17 14:46:01;;;;;;;19.33;18.27;;;;;;;;;;4979322;28;20065;-61
2023/10/17 14:48:27;;;;;;;21.90;20.70;;;;;;;;;;4979686;28;20453;-61
2023/10/17 14:50:52;;;;;;;20.00;18.80;;;;;;;;;;4976209;28;20042;-61
2023/10/17 14:53:19;;;;;;;20.35;19.25;;;;;;;;;;4979726;28;20038;-60
2023/10/17 14:55:46;;;;;;;19.55;18.35;;;;;;;;;;4978427;28;20492;-61
2023/10/17 14:58:11;;;;;;;20.17;19.08;;;;;;;;;;4979658;28;20528;-61
2023/10/17 15:00:37;;;;;;;20.63;19.50;;;;;;;;;;4978998;28;20134;-61
2023/10/17 15:03:03;;;;;;;19.38;18.27;;;;;;;;;;4977734;28;20040;-61
2023/10/17 15:05:30;;;;;;;20.40;19.30;;;;;;;;;;4978398;28;20310;-61
2023/10/17 15:07:56;;;;;;;20.77;19.48;;;;;;;;;;4977830;28;20092;-62
2023/10/17 15:10:23;;;;;;;23.33;22.02;;;;;;;;;;4978150;28;20035;-61
2023/10/17 15:12:52;;;;;;;23.13;21.73;;;;;;;;;;4979466;28;20428;-66
2023/10/17 15:15:18;;;;;;;21.92;20.73;;;;;;;;;;4977813;28;20065;-64
2023/10/17 15:17:44;;;;;;;22.00;20.80;;;;;;;;;;4979100;28;20468;-64
2023/10/17 15:20:11;;;;;;;19.70;18.60;;;;;;;;;;4979668;28;20035;-64
2023/10/17 15:22:41;;;;;;;21.20;19.92;;;;;;;;;;4977315;28;20520;-64
2023/10/17 15:25:11;;;;;;;21.60;20.40;;;;;;;;;;4977632;28;20064;-65
2023/10/17 15:27:36;;;;;;;22.10;20.90;;;;;;;;;;4980316;28;20266;-65
2023/10/17 15:30:02;;;;;;;23.35;22.05;;;;;;;;;;4979220;28;20031;-65
2023/10/17 15:32:27;;;;;;;22.05;20.75;;;;;;;;;;4983388;28;20350;-65
2023/10/17 15:34:52;;;;;;;23.25;22.05;;;;;;;;;;4979591;28;20034;-65
2023/10/17 15:37:19;;;;;;;25.42;24.02;;;;;;;;;;4982585;28;20543;-65
2023/10/17 15:39:46;;;;;;;22.80;21.60;;;;;;;;;;4980126;28;20034;-65
2023/10/17 15:42:14;;;;;;;26.85;25.45;;;;;;;;;;4981022;28;20649;-64
2023/10/17 15:44:40;;;;;;;25.20;23.83;;;;;;;;;;4981545;28;20048;-65
2023/10/17 15:47:06;;;;;;;22.75;21.55;;;;;;;;;;4979304;28;20046;-64
2023/10/17 15:49:32;;;;;;;24.60;23.20;;;;;;;;;;4982997;28;20061;-65
2023/10/17 15:51:58;;;;;;;22.00;20.80;;;;;;;;;;4980017;28;20229;-64
2023/10/17 15:54:24;;;;;;;22.67;21.48;;;;;;;;;;4983593;28;20038;-64
2023/10/17 15:56:49;;;;;;;20.98;19.85;;;;;;;;;;4981012;28;20046;-64
2023/10/17 15:59:15;;;;;;;21.48;20.27;;;;;;;;;;4983201;28;20046;-64
2023/10/17 16:01:41;;;;;;;20.80;18.77;;;;;;;;;;4979085;28;20037;-64
2023/10/17 16:04:07;;;;;;;17.10;16.15;;;;;;;;;;4979334;28;20261;-65
2023/10/17 16:06:32;;;;;;;16.83;15.82;;;;;;;;;;4982639;28;20026;-65
2023/10/17 16:08:58;;;;;;;15.70;14.30;;;;;;;;;;4981792;28;20100;-65
2023/10/17 16:11:23;;;;;;;15.68;14.77;;;;;;;;;;4979191;28;20050;-65
2023/10/17 16:13:49;;;;;;;16.25;15.35;;;;;;;;;;4980508;28;20748;-65
2023/10/17 16:16:15;;;;;;;16.25;15.30;;;;;;;;;;4981967;28;20084;-65
2023/10/17 16:18:40;;;;;;;16.02;15.13;;;;;;;;;;4980587;28;20048;-65
2023/10/17 16:21:09;;;;;;;17.52;16.52;;;;;;;;;;4982892;28;20444;-64
2023/10/17 16:23:38;;;;;;;17.77;16.48;;;;;;;;;;4977554;28;20061;-65
2023/10/17 16:26:04;;;;;;;16.75;15.75;;;;;;;;;;4981590;28;20459;-64
2023/10/17 16:28:30;;;;;;;18.52;17.33;;;;;;;;;;4979839;28;20638;-65